DataTemp.
Ø
Temp.
Max
Temp.
Min
UmiditàPressionePioggiaVento
Ø
Vento
dir. Ø
Vento
Max
Indice UV
Max
15.06.2019 00:0021.5°C21.5°C21.5°C43.2%1015.0hPa0.0mm4.4km/hSSE6.5km/h0uvi
15.06.2019 00:0521.4°C21.4°C21.4°C43.0%1015.5hPa0.0mm3.4km/hSSE4.7km/h0uvi
15.06.2019 00:1021.4°C21.5°C21.4°C42.2%1016.0hPa0.0mm2.1km/hSSE6.1km/h0uvi
15.06.2019 00:1521.5°C21.5°C21.5°C43.0%1016.0hPa0.0mm2.2km/hNE4.3km/h0uvi
15.06.2019 00:2021.4°C21.4°C21.4°C43.0%1016.0hPa0.0mm0.7km/hSSE4.0km/h0uvi
15.06.2019 00:2521.4°C21.4°C21.4°C44.0%1016.0hPa0.0mm3.2km/hSSW5.4km/h0uvi
15.06.2019 00:3021.4°C21.5°C21.4°C43.3%1016.0hPa0.0mm1.4km/hSSW4.0km/h0uvi
15.06.2019 00:3521.5°C21.5°C21.5°C43.0%1016.0hPa0.0mm1.2km/hNE3.2km/h0uvi
15.06.2019 00:4021.6°C21.6°C21.5°C43.8%1016.0hPa0.0mm0.8km/hSSE2.5km/h0uvi
15.06.2019 00:4521.6°C21.6°C21.6°C44.7%1016.0hPa0.0mm2.0km/hSSE4.0km/h0uvi
15.06.2019 00:5021.6°C21.6°C21.5°C43.7%1016.0hPa0.0mm4.4km/hSSW6.8km/h0uvi
15.06.2019 00:5521.6°C21.6°C21.5°C42.0%1016.0hPa0.0mm4.5km/hSSW8.6km/h0uvi
15.06.2019 01:0021.5°C21.5°C21.5°C42.0%1016.0hPa0.0mm3.5km/hSW8.6km/h0uvi
15.06.2019 01:0521.6°C21.6°C21.6°C42.0%1015.5hPa0.0mm1.5km/hNE3.2km/h0uvi
15.06.2019 01:1021.6°C21.6°C21.5°C42.0%1015.0hPa0.0mm1.0km/hNE4.7km/h0uvi
15.06.2019 01:1521.5°C21.5°C21.5°C42.0%1015.0hPa0.0mm2.5km/hSSW5.4km/h0uvi
15.06.2019 01:2021.5°C21.5°C21.5°C42.0%1015.3hPa0.0mm0.6km/hNE2.5km/h0uvi
15.06.2019 01:2521.5°C21.5°C21.4°C42.2%1016.0hPa0.0mm0.4km/hNE2.5km/h0uvi
15.06.2019 01:3021.4°C21.4°C21.4°C43.0%1016.0hPa0.0mm0.1km/hSSE2.2km/h0uvi
15.06.2019 01:3521.3°C21.3°C21.2°C43.5%1015.6hPa0.0mm2.5km/hSSE5.4km/h0uvi
15.06.2019 01:4021.1°C21.2°C21.1°C43.8%1015.0hPa0.0mm3.2km/hSSW4.7km/h0uvi
15.06.2019 01:4521.1°C21.1°C21.1°C43.0%1015.0hPa0.0mm0.7km/hSSE3.2km/h0uvi
15.06.2019 01:5021.2°C21.2°C21.1°C43.0%1015.0hPa0.0mm0.6km/hSE2.2km/h0uvi
15.06.2019 01:5521.1°C21.1°C21.1°C44.0%1015.0hPa0.0mm2.3km/hNE4.0km/h0uvi
15.06.2019 02:0021.0°C21.0°C21.0°C45.0%1015.0hPa0.0mm2.8km/hSSW5.8km/h0uvi
15.06.2019 02:0520.9°C21.0°C20.9°C45.2%1015.0hPa0.0mm2.2km/hNE4.0km/h0uvi
15.06.2019 02:1020.8°C20.8°C20.8°C45.2%1015.0hPa0.0mm1.2km/hENE3.2km/h0uvi
15.06.2019 02:1520.8°C20.8°C20.7°C45.8%1015.0hPa0.0mm2.1km/hSSE4.3km/h0uvi
15.06.2019 02:2020.7°C20.8°C20.7°C45.0%1015.0hPa0.0mm0.7km/hSSE1.8km/h0uvi
15.06.2019 02:2520.8°C20.8°C20.8°C45.0%1015.0hPa0.0mm2.1km/hSSE4.7km/h0uvi
15.06.2019 02:3020.9°C20.9°C20.8°C45.2%1015.0hPa0.0mm3.8km/hSSE6.1km/h0uvi
15.06.2019 02:3520.9°C20.9°C20.8°C45.0%1015.0hPa0.0mm5.3km/hSSW6.8km/h0uvi
15.06.2019 02:4020.9°C20.9°C20.8°C45.0%1015.0hPa0.0mm2.3km/hSE5.4km/h0uvi
15.06.2019 02:4520.8°C20.8°C20.8°C45.0%1015.0hPa0.0mm2.1km/hNE4.3km/h0uvi
15.06.2019 02:5020.7°C20.8°C20.7°C46.0%1015.0hPa0.0mm1.2km/hNW4.3km/h0uvi
15.06.2019 02:5520.7°C20.7°C20.7°C46.7%1015.0hPa0.0mm1.7km/hSSE6.1km/h0uvi
15.06.2019 03:0020.7°C20.7°C20.6°C47.0%1015.0hPa0.0mm4.3km/hSSE6.1km/h0uvi
15.06.2019 03:0520.6°C20.6°C20.6°C47.0%1014.4hPa0.0mm4.8km/hSSW7.6km/h0uvi
15.06.2019 03:1020.6°C20.6°C20.5°C47.0%1014.0hPa0.0mm1.6km/hSSW4.7km/h0uvi
15.06.2019 03:1520.5°C20.6°C20.5°C47.2%1014.0hPa0.0mm1.0km/hNE2.5km/h0uvi
15.06.2019 03:2020.4°C20.5°C20.4°C48.0%1014.6hPa0.0mm3.2km/hSSW6.5km/h0uvi
15.06.2019 03:2520.4°C20.4°C20.4°C48.0%1015.0hPa0.0mm2.2km/hSSE4.0km/h0uvi
15.06.2019 03:3020.4°C20.4°C20.4°C48.2%1015.0hPa0.0mm1.4km/hSSW4.0km/h0uvi
15.06.2019 03:3520.4°C20.4°C20.4°C49.2%1014.8hPa0.0mm3.1km/hS5.0km/h0uvi
15.06.2019 03:4020.3°C20.4°C20.3°C50.4%1014.0hPa0.0mm5.2km/hSSE9.4km/h0uvi
15.06.2019 03:4520.3°C20.3°C20.3°C51.0%1014.0hPa0.0mm5.2km/hSSW6.5km/h0uvi
15.06.2019 03:5020.4°C20.5°C20.3°C50.5%1014.0hPa0.0mm5.1km/hSSW7.6km/h0uvi
15.06.2019 03:5520.6°C20.6°C20.5°C49.8%1014.0hPa0.0mm3.0km/hWSW5.0km/h0uvi
15.06.2019 04:0020.4°C20.5°C20.4°C51.0%1014.0hPa0.0mm2.9km/hSSW4.7km/h0uvi
15.06.2019 04:0520.4°C20.4°C20.4°C51.6%1014.5hPa0.0mm3.6km/hSSW6.1km/h0uvi
15.06.2019 04:1020.4°C20.4°C20.4°C51.0%1015.0hPa0.0mm1.6km/hSSE2.2km/h0uvi
15.06.2019 04:1520.4°C20.4°C20.3°C51.0%1015.0hPa0.0mm1.3km/hSSE3.2km/h0uvi
15.06.2019 04:2020.3°C20.3°C20.3°C51.2%1015.0hPa0.0mm0.5km/hSSE5.0km/h0uvi
15.06.2019 04:2520.2°C20.2°C20.1°C52.0%1015.0hPa0.0mm2.1km/hNE5.0km/h0uvi
15.06.2019 04:3020.1°C20.1°C20.0°C52.5%1015.0hPa0.0mm0.8km/hSSE2.5km/h0uvi
15.06.2019 04:3519.9°C20.0°C19.9°C53.0%1014.9hPa0.9km/hNE2.5km/h0uvi
15.06.2019 04:4019.8°C19.9°C19.8°C53.6%1014.0hPa0.0mm0.9km/hNE4.0km/h0uvi
15.06.2019 04:4519.8°C19.8°C19.8°C54.0%1014.0hPa0.0mm2.7km/hSE4.3km/h0uvi
15.06.2019 04:5019.8°C19.8°C19.8°C54.4%1014.6hPa0.0mm4.1km/hSE5.8km/h0uvi
15.06.2019 04:5519.8°C19.8°C19.8°C55.0%1015.0hPa0.0mm2.2km/hSSE4.7km/h0uvi
15.06.2019 05:0019.7°C19.7°C19.7°C55.6%1015.0hPa0.0mm1.0km/hSE4.0km/h0uvi
15.06.2019 05:0519.6°C19.6°C19.6°C55.0%1015.0hPa0.0mm0.2km/hNE3.2km/h0uvi
15.06.2019 05:1019.5°C19.5°C19.5°C55.8%1015.0hPa0.0mm1.3km/hSSE1.8km/h0uvi
15.06.2019 05:1519.5°C19.5°C19.4°C57.4%1015.0hPa0.0mm1.2km/hSSW2.5km/h0uvi
15.06.2019 05:2019.4°C19.4°C19.4°C57.0%1015.0hPa0.0mm0.3km/hENE1.8km/h0uvi
15.06.2019 05:2519.4°C19.4°C19.4°C57.5%1015.0hPa0.0mm2.0km/hSSE4.0km/h0uvi
15.06.2019 05:3019.4°C19.5°C19.4°C57.0%1015.0hPa0.0mm1.9km/hSSW4.0km/h0uvi
15.06.2019 05:3519.5°C19.5°C19.5°C56.7%1015.0hPa0.0mm1.0km/hSSE3.6km/h0uvi
15.06.2019 05:4019.5°C19.5°C19.5°C57.3%1015.0hPa0.0mm3.4km/hNE5.4km/h0uvi
15.06.2019 05:4519.6°C19.6°C19.5°C55.5%1015.0hPa0.0mm2.3km/hSSE4.0km/h0uvi
15.06.2019 05:5019.5°C19.5°C19.5°C57.0%1015.0hPa0.0mm3.1km/hSSE4.3km/h0uvi
15.06.2019 05:5519.3°C19.4°C19.3°C57.8%1015.0hPa0.0mm2.3km/hSE4.3km/h0uvi
15.06.2019 06:0019.3°C19.3°C19.2°C58.0%1015.0hPa0.0mm1.5km/hSSE2.5km/h0uvi
15.06.2019 06:0519.2°C19.2°C19.2°C58.2%1014.4hPa0.0mm2.3km/hSSE4.0km/h0uvi
15.06.2019 06:1019.2°C19.2°C19.2°C59.0%1014.0hPa0.0mm2.7km/hSSE5.0km/h0uvi
15.06.2019 06:1519.2°C19.2°C19.2°C58.3%1014.0hPa0.0mm2.9km/hSSE4.7km/h0uvi
15.06.2019 06:2019.2°C19.2°C19.1°C58.0%1014.0hPa0.0mm1.5km/hSSE4.3km/h0uvi
15.06.2019 06:2519.2°C19.2°C19.2°C57.8%1014.0hPa0.0mm0.6km/hESE1.8km/h0uvi
15.06.2019 06:3019.2°C19.2°C19.2°C57.5%1014.0hPa0.0mm1.1km/hSE4.3km/h0uvi
15.06.2019 06:3519.2°C19.2°C19.2°C57.5%1014.0hPa0.0mm0.8km/hNE1.8km/h0uvi
15.06.2019 06:4019.2°C19.2°C19.2°C58.0%1014.0hPa0.0mm0.8km/hESE2.2km/h0uvi
15.06.2019 06:4519.2°C19.2°C19.2°C58.0%1014.0hPa0.0mm0.2km/hNW0.0km/h0uvi
15.06.2019 06:5019.2°C19.2°C19.1°C59.0%1014.0hPa0.0mm1.4km/hSSE3.6km/h0uvi
15.06.2019 06:5519.1°C19.1°C19.1°C61.3%1014.0hPa0.0mm2.4km/hSSE4.3km/h0uvi
15.06.2019 07:0019.1°C19.1°C19.1°C62.8%1014.0hPa0.0mm3.3km/hSSE4.7km/h0uvi
15.06.2019 07:0519.2°C19.2°C19.1°C63.0%1014.6hPa0.0mm2.6km/hSSE4.3km/h0uvi
15.06.2019 07:1019.3°C19.3°C19.2°C63.0%1015.0hPa0.0mm2.1km/hSSE4.0km/h0uvi
15.06.2019 07:1519.4°C19.5°C19.4°C62.0%1015.0hPa0.0mm2.2km/hSSE4.0km/h0uvi
15.06.2019 07:2019.5°C19.5°C19.5°C61.6%1015.0hPa0.0mm0.5km/hSSE1.8km/h0uvi
15.06.2019 07:2519.6°C19.6°C19.6°C61.0%1015.0hPa0.0mm0.8km/hNE1.8km/h0uvi
15.06.2019 07:3019.7°C19.8°C19.7°C61.0%1015.0hPa0.0mm0.0km/hNE3.2km/h0uvi
15.06.2019 07:3519.9°C19.9°C19.8°C60.0%1014.7hPa0.0mm0.6km/hNE2.5km/h0uvi
15.06.2019 07:4020.0°C20.0°C20.0°C59.0%1014.0hPa0.0mm1.9km/hSSE4.0km/h0uvi
15.06.2019 07:4520.1°C20.1°C20.0°C58.2%1014.0hPa0.0mm2.4km/hSE4.0km/h0uvi
15.06.2019 07:5020.2°C20.2°C20.2°C58.0%1014.0hPa0.0mm1.3km/hSSE3.2km/h0uvi
15.06.2019 07:5520.3°C20.3°C20.2°C58.0%1014.0hPa0.0mm1.4km/hNE4.3km/h0uvi
15.06.2019 08:0020.4°C20.5°C20.3°C58.0%1014.0hPa0.0mm1.9km/hNE3.6km/h0uvi
15.06.2019 08:0520.6°C20.7°C20.5°C58.0%1014.6hPa0.0mm2.5km/hNE5.8km/h0uvi
15.06.2019 08:1020.8°C20.8°C20.7°C58.0%1015.0hPa0.0mm2.6km/hNE4.3km/h0uvi
15.06.2019 08:1520.9°C21.0°C20.9°C57.6%1015.0hPa0.0mm1.5km/hNE4.7km/h0uvi
15.06.2019 08:2021.0°C21.0°C21.0°C57.0%1015.0hPa0.0mm1.2km/hSSE3.6km/h0uvi
15.06.2019 08:2521.0°C21.1°C21.0°C56.0%1015.0hPa0.0mm0.6km/hNE3.2km/h0uvi
15.06.2019 08:3021.1°C21.2°C21.1°C55.2%1015.0hPa0.0mm1.4km/hSSE3.2km/h1uvi
15.06.2019 08:3521.3°C21.3°C21.2°C54.4%1014.4hPa0.0mm0.3km/hWNW5.4km/h1uvi
15.06.2019 08:4021.4°C21.5°C21.3°C52.0%1014.0hPa0.0mm1.8km/hNE4.7km/h1uvi
15.06.2019 08:4521.5°C21.5°C21.5°C51.0%1014.0hPa0.0mm2.9km/hNE4.3km/h1uvi
15.06.2019 08:5021.6°C21.7°C21.5°C52.0%1014.0hPa0.0mm1.6km/hNE3.2km/h2uvi
15.06.2019 08:5521.9°C21.9°C21.8°C52.0%1014.0hPa0.0mm0.8km/hNE3.2km/h3uvi
15.06.2019 09:0022.1°C22.1°C22.0°C51.0%1014.0hPa0.0mm1.1km/hNE3.6km/h3uvi
15.06.2019 09:0522.2°C22.2°C22.1°C49.8%1014.0hPa0.0mm3.9km/hNE7.9km/h3uvi
15.06.2019 09:1022.2°C22.3°C22.2°C49.2%1014.0hPa0.0mm2.8km/hNW5.8km/h3uvi
15.06.2019 09:1522.5°C22.6°C22.4°C48.4%1014.0hPa0.0mm2.8km/hNE6.1km/h3uvi
15.06.2019 09:2022.6°C22.7°C22.6°C47.5%1014.6hPa0.0mm2.9km/hNE5.4km/h4uvi
15.06.2019 09:2522.8°C22.8°C22.7°C48.0%1015.0hPa0.0mm2.6km/hSSE7.9km/h4uvi
15.06.2019 09:3022.9°C23.0°C22.8°C47.7%1015.0hPa0.0mm2.6km/hNE4.0km/h4uvi
15.06.2019 09:3523.2°C23.4°C23.1°C46.0%1015.0hPa0.0mm2.3km/hNE5.0km/h4uvi
15.06.2019 09:4023.4°C23.5°C23.3°C44.5%1015.0hPa0.0mm3.8km/hNE6.5km/h4uvi
15.06.2019 09:4523.6°C23.6°C23.5°C42.8%1015.0hPa0.0mm4.5km/hNE6.1km/h4uvi
15.06.2019 09:5023.7°C23.8°C23.6°C43.8%1014.4hPa0.0mm3.0km/hNE6.8km/h5uvi
15.06.2019 09:5524.0°C24.0°C24.0°C43.5%1014.0hPa0.0mm4.8km/hNE9.0km/h5uvi
15.06.2019 10:0024.1°C24.2°C24.0°C42.7%1014.0hPa0.0mm3.4km/hNE6.5km/h4uvi
15.06.2019 10:0524.4°C24.6°C24.2°C43.2%1014.0hPa0.0mm2.6km/hSSE7.6km/h5uvi
15.06.2019 10:1024.6°C24.7°C24.6°C42.0%1014.0hPa0.0mm4.7km/hSSE7.9km/h5uvi
15.06.2019 10:1524.8°C24.9°C24.7°C42.4%1014.0hPa0.0mm2.9km/hSSE6.1km/h5uvi
15.06.2019 10:2024.8°C24.9°C24.7°C41.5%1014.0hPa0.0mm3.9km/hNE9.0km/h5uvi
15.06.2019 10:2524.9°C25.0°C24.9°C41.8%1014.0hPa0.0mm3.9km/hSSE9.7km/h6uvi
15.06.2019 10:3025.1°C25.2°C25.1°C40.6%1014.0hPa0.0mm4.2km/hNE9.7km/h6uvi
15.06.2019 10:3525.2°C25.3°C25.0°C39.2%1014.0hPa0.0mm3.4km/hNE5.0km/h5uvi
15.06.2019 10:4025.3°C25.4°C25.3°C38.4%1014.0hPa0.0mm2.4km/hENE5.4km/h6uvi
15.06.2019 10:4525.5°C25.6°C25.4°C38.3%1014.0hPa0.0mm3.9km/hNE10.1km/h7uvi
15.06.2019 10:5025.6°C25.7°C25.6°C38.2%1014.0hPa0.0mm3.5km/hNE5.4km/h7uvi
15.06.2019 10:5525.8°C25.9°C25.7°C38.5%1014.0hPa0.0mm5.4km/hNE9.4km/h6uvi
15.06.2019 11:0026.2°C26.4°C26.0°C41.8%1014.0hPa0.0mm4.0km/hNE6.8km/h7uvi
15.06.2019 11:0526.4°C26.6°C26.4°C40.2%1014.0hPa0.0mm3.3km/hNE8.6km/h7uvi
15.06.2019 11:1026.4°C26.5°C26.4°C38.5%1014.0hPa0.0mm4.2km/hNE9.0km/h7uvi
15.06.2019 11:1526.6°C26.6°C26.5°C39.2%1014.0hPa0.0mm4.5km/hNE6.1km/h8uvi
15.06.2019 11:2026.9°C27.0°C26.8°C40.0%1014.0hPa0.0mm3.0km/hNE4.7km/h6uvi
15.06.2019 11:2527.0°C27.2°C26.8°C38.8%1014.0hPa0.0mm0.7km/hSSE4.0km/h8uvi
15.06.2019 11:3027.5°C27.6°C27.3°C38.2%1014.0hPa0.0mm1.7km/hENE5.4km/h8uvi
15.06.2019 11:3527.7°C27.9°C27.5°C36.0%1014.0hPa0.0mm3.2km/hENE7.9km/h9uvi
15.06.2019 11:4028.3°C28.6°C28.1°C35.8%1014.0hPa0.0mm2.5km/hSSE6.1km/h9uvi
15.06.2019 11:4528.8°C29.0°C28.6°C35.2%1014.0hPa0.0mm1.0km/hSSE4.3km/h8uvi
15.06.2019 11:5028.9°C29.1°C28.8°C34.5%1014.0hPa0.0mm1.8km/hSSW9.0km/h9uvi
15.06.2019 11:5528.7°C28.8°C28.7°C33.3%1014.0hPa0.0mm3.0km/hNE5.8km/h9uvi
15.06.2019 12:0029.4°C29.7°C28.9°C33.8%1014.0hPa0.0mm3.5km/hNE7.6km/h10uvi
15.06.2019 12:0529.9°C30.0°C29.7°C29.2%1013.4hPa0.0mm5.9km/hNE9.7km/h10uvi
15.06.2019 12:1030.2°C30.3°C30.2°C26.2%1013.0hPa0.0mm7.3km/hNE11.2km/h10uvi
15.06.2019 12:1530.4°C30.5°C30.2°C25.8%1013.0hPa0.0mm5.7km/hNE10.1km/h10uvi
15.06.2019 12:2030.6°C30.6°C30.6°C25.5%1013.0hPa0.0mm6.3km/hNE11.9km/h9uvi
15.06.2019 12:2530.6°C30.7°C30.6°C25.0%1013.0hPa0.0mm7.6km/hNE16.6km/h9uvi
15.06.2019 12:3030.5°C30.6°C30.5°C25.0%1013.0hPa0.0mm6.3km/hNE12.6km/h10uvi
15.06.2019 12:3530.8°C30.9°C30.6°C25.2%1013.0hPa0.0mm4.1km/hNE8.6km/h10uvi
15.06.2019 12:4030.8°C30.8°C30.7°C25.0%1013.0hPa0.0mm6.6km/hENE14.0km/h9uvi
15.06.2019 12:4530.6°C30.6°C30.5°C25.0%1013.0hPa0.0mm9.5km/hENE21.2km/h10uvi
15.06.2019 12:5030.6°C30.7°C30.6°C25.0%1013.0hPa0.0mm5.9km/hNW7.9km/h11uvi
15.06.2019 12:5530.9°C31.0°C30.9°C25.0%1013.0hPa0.0mm5.4km/hNE16.2km/h10uvi
15.06.2019 13:0030.9°C30.9°C30.8°C25.0%1013.0hPa0.0mm6.9km/hENE15.1km/h10uvi
15.06.2019 13:0530.8°C30.8°C30.8°C25.0%1012.5hPa0.0mm5.7km/hNW16.9km/h10uvi
15.06.2019 13:1030.6°C30.7°C30.6°C25.0%1012.0hPa0.0mm7.7km/hNE15.5km/h10uvi
15.06.2019 13:1530.7°C30.8°C30.6°C25.0%1012.0hPa0.0mm5.4km/hSSE10.1km/h10uvi
15.06.2019 13:2030.5°C30.6°C30.5°C25.0%1012.0hPa0.0mm5.3km/hNW9.4km/h3uvi
15.06.2019 13:2530.2°C30.3°C30.2°C25.0%1012.0hPa0.0mm5.2km/hSE13.7km/h4uvi
15.06.2019 13:3030.5°C30.6°C30.4°C25.0%1012.0hPa0.0mm5.6km/hENE15.8km/h9uvi
15.06.2019 13:3530.6°C30.6°C30.6°C25.0%1012.0hPa0.0mm6.7km/hNE12.2km/h9uvi
15.06.2019 13:4030.8°C30.9°C30.7°C25.0%1012.0hPa0.0mm4.8km/hSSE15.5km/h5uvi
15.06.2019 13:4530.9°C31.0°C30.8°C25.2%1012.0hPa0.0mm5.6km/hNW11.5km/h9uvi
15.06.2019 13:5030.9°C31.0°C30.7°C25.0%1012.0hPa0.0mm5.7km/hNE11.5km/h5uvi
15.06.2019 13:5530.7°C30.7°C30.6°C25.8%1012.0hPa0.0mm5.2km/hSE11.9km/h9uvi
15.06.2019 14:0030.8°C30.9°C30.6°C25.0%1012.0hPa0.0mm5.2km/hENE13.0km/h9uvi
15.06.2019 14:0530.5°C30.6°C30.3°C25.0%1012.0hPa0.0mm5.0km/hNE9.0km/h3uvi
15.06.2019 14:1030.2°C30.2°C30.2°C25.0%1012.0hPa0.0mm5.4km/hNE10.1km/h6uvi
15.06.2019 14:1530.0°C30.1°C30.0°C25.4%1012.0hPa0.0mm5.5km/hNE10.1km/h2uvi
15.06.2019 14:2029.9°C29.9°C29.8°C26.5%1012.0hPa0.0mm3.9km/hNW9.4km/h2uvi
15.06.2019 14:2529.6°C29.7°C29.6°C26.5%1012.0hPa0.0mm4.0km/hWNW7.9km/h1uvi
15.06.2019 14:3029.6°C29.6°C29.5°C26.2%1012.0hPa0.0mm4.4km/hNE10.4km/h1uvi
15.06.2019 14:3529.3°C29.4°C29.3°C27.0%1012.0hPa0.0mm4.7km/hSSW9.0km/h1uvi
15.06.2019 14:4029.3°C29.4°C29.3°C27.2%1012.0hPa0.0mm4.0km/hNW6.8km/h2uvi
15.06.2019 14:4529.4°C29.4°C29.4°C27.0%1012.0hPa0.0mm4.0km/hNW6.8km/h2uvi
15.06.2019 14:5029.4°C29.4°C29.4°C27.8%1012.0hPa0.0mm3.0km/hWSW6.1km/h2uvi
15.06.2019 14:5529.4°C29.5°C29.4°C28.2%1012.0hPa0.0mm5.8km/hSSE11.9km/h5uvi
15.06.2019 15:0029.4°C29.5°C29.4°C29.5%1012.0hPa0.0mm3.0km/hSSE10.4km/h2uvi
15.06.2019 15:0529.4°C29.4°C29.3°C28.8%1012.0hPa0.0mm5.3km/hNW10.1km/h2uvi
15.06.2019 15:1029.6°C29.8°C29.3°C29.8%1012.0hPa0.0mm3.0km/hNE6.5km/h7uvi
15.06.2019 15:1530.0°C30.3°C29.8°C30.3%1012.0hPa0.0mm4.3km/hNE11.5km/h6uvi
15.06.2019 15:2030.1°C30.3°C29.9°C28.6%1011.4hPa0.0mm4.4km/hNW10.1km/h4uvi
15.06.2019 15:2530.0°C30.0°C29.9°C28.0%1011.0hPa0.0mm4.5km/hNW10.1km/h5uvi
15.06.2019 15:3029.9°C30.1°C29.8°C28.6%1011.0hPa0.0mm5.3km/hNE9.0km/h6uvi
15.06.2019 15:3530.1°C30.2°C30.1°C27.5%1011.6hPa0.0mm5.1km/hNW9.0km/h6uvi
15.06.2019 15:4030.3°C30.4°C30.2°C28.0%1012.0hPa0.0mm5.8km/hSSE11.9km/h6uvi
15.06.2019 15:4530.7°C30.8°C30.5°C28.0%1012.0hPa0.0mm4.2km/hNE10.1km/h6uvi
15.06.2019 15:5030.5°C30.7°C30.3°C28.0%1012.0hPa0.0mm4.2km/hESE11.9km/h2uvi
15.06.2019 15:5530.2°C30.3°C30.2°C27.8%1012.0hPa0.0mm3.7km/hWNW6.5km/h2uvi
15.06.2019 16:0030.2°C30.2°C30.1°C27.0%1012.0hPa0.0mm5.6km/hNE12.2km/h4uvi
15.06.2019 16:0530.4°C30.6°C30.3°C27.7%1012.0hPa0.0mm5.0km/hNW9.0km/h4uvi
15.06.2019 16:1030.5°C30.6°C30.5°C27.3%1012.0hPa0.0mm3.4km/hNE9.4km/h4uvi
15.06.2019 16:1530.7°C30.8°C30.6°C28.0%1012.0hPa0.0mm4.7km/hNW7.9km/h4uvi
15.06.2019 16:2030.6°C30.6°C30.5°C26.4%1012.0hPa0.0mm4.8km/hNE10.1km/h3uvi
15.06.2019 16:2530.6°C30.6°C30.5°C26.5%1012.0hPa0.0mm5.1km/hNE10.1km/h4uvi
15.06.2019 16:3030.7°C30.8°C30.6°C27.2%1012.0hPa0.0mm4.1km/hNE9.4km/h4uvi
15.06.2019 16:3530.7°C30.7°C30.7°C26.7%1011.6hPa0.0mm6.2km/hNE12.6km/h4uvi
15.06.2019 16:4030.7°C30.8°C30.5°C26.0%1011.0hPa0.0mm6.5km/hNE12.6km/h4uvi
15.06.2019 16:4530.5°C30.6°C30.4°C26.6%1011.0hPa0.0mm6.2km/hENE11.9km/h4uvi
15.06.2019 16:5030.5°C30.6°C30.4°C27.0%1011.0hPa0.0mm6.3km/hNE11.5km/h3uvi
15.06.2019 16:5530.4°C30.4°C30.4°C27.0%1011.0hPa0.0mm5.4km/hENE9.4km/h3uvi
15.06.2019 17:0030.4°C30.4°C30.3°C26.7%1011.0hPa0.0mm6.4km/hNE12.2km/h3uvi
15.06.2019 17:0530.4°C30.4°C30.3°C26.0%1011.0hPa0.0mm7.7km/hNE14.0km/h3uvi
15.06.2019 17:1030.4°C30.5°C30.3°C27.2%1011.0hPa0.0mm4.1km/hNE9.4km/h2uvi
15.06.2019 17:1530.4°C30.5°C30.3°C27.0%1011.0hPa0.0mm5.6km/hENE15.5km/h3uvi
15.06.2019 17:2030.4°C30.4°C30.3°C26.0%1011.0hPa0.0mm8.4km/hESE11.5km/h2uvi
15.06.2019 17:2530.2°C30.2°C30.1°C26.0%1011.0hPa0.0mm6.1km/hNW15.8km/h2uvi
15.06.2019 17:3030.1°C30.2°C30.1°C26.5%1011.0hPa0.0mm4.8km/hNE7.9km/h1uvi
15.06.2019 17:3530.0°C30.1°C29.9°C26.4%1011.0hPa0.0mm4.6km/hNE10.1km/h1uvi
15.06.2019 17:4029.7°C29.8°C29.6°C27.0%1011.0hPa0.0mm5.4km/hNE10.1km/h1uvi
15.06.2019 17:4529.8°C29.8°C29.7°C27.0%1011.0hPa0.0mm4.5km/hNE7.6km/h1uvi
15.06.2019 17:5029.7°C29.7°C29.6°C27.0%1011.0hPa0.0mm5.2km/hNE13.7km/h0uvi
15.06.2019 17:5529.4°C29.5°C29.4°C27.0%1011.0hPa0.0mm5.3km/hNE13.0km/h0uvi
15.06.2019 18:0029.3°C29.3°C29.2°C27.0%1011.0hPa0.0mm5.1km/hNE9.0km/h0uvi
15.06.2019 18:0529.1°C29.2°C29.1°C27.7%1011.0hPa0.0mm4.7km/hNE9.0km/h0uvi
15.06.2019 18:1029.0°C29.0°C29.0°C27.8%1011.0hPa0.0mm5.4km/hNE10.4km/h0uvi
15.06.2019 18:1529.0°C29.0°C29.0°C28.0%1011.0hPa0.0mm3.9km/hNE6.8km/h0uvi
15.06.2019 18:2028.8°C28.8°C28.8°C30.0%1011.0hPa0.0mm4.9km/hENE9.4km/h0uvi
15.06.2019 18:2529.0°C29.1°C28.9°C30.5%1011.0hPa0.0mm4.1km/hNE7.9km/h1uvi
15.06.2019 18:3029.2°C29.2°C29.1°C30.6%1011.0hPa0.0mm5.4km/hNE9.4km/h1uvi
15.06.2019 18:3529.2°C29.3°C29.2°C30.2%1011.0hPa0.0mm5.8km/hNE9.4km/h0uvi
15.06.2019 18:4029.2°C29.3°C29.2°C31.8%1011.0hPa0.0mm5.1km/hNE10.1km/h0uvi
15.06.2019 18:4529.2°C29.2°C29.2°C32.0%1011.0hPa0.0mm6.3km/hNE11.2km/h0uvi
15.06.2019 18:5029.1°C29.2°C29.0°C32.0%1011.0hPa0.0mm4.5km/hNE9.0km/h0uvi
15.06.2019 18:5528.9°C28.9°C28.8°C32.5%1011.0hPa0.0mm7.1km/hNE14.0km/h0uvi
15.06.2019 19:0028.7°C28.8°C28.7°C33.0%1011.0hPa0.0mm6.5km/hNE8.6km/h0uvi
15.06.2019 19:0528.5°C28.6°C28.4°C33.0%1010.3hPa0.0mm4.3km/hNE6.5km/h0uvi
15.06.2019 19:1028.3°C28.4°C28.3°C34.0%1010.0hPa0.0mm4.2km/hNE7.9km/h0uvi
15.06.2019 19:1528.3°C28.3°C28.2°C34.0%1010.0hPa0.0mm4.4km/hNE6.1km/h0uvi
15.06.2019 19:2028.1°C28.2°C28.1°C34.8%1010.6hPa0.0mm4.8km/hNE7.9km/h0uvi
15.06.2019 19:2528.0°C28.0°C27.9°C35.0%1011.0hPa0.0mm0.8km/hSSE2.5km/h0uvi
15.06.2019 19:3027.8°C27.9°C27.7°C35.5%1011.0hPa0.0mm0.3km/hENE2.2km/h0uvi
15.06.2019 19:3527.6°C27.7°C27.4°C36.3%1010.4hPa0.0mm2.4km/hSSW4.3km/h0uvi
15.06.2019 19:4027.3°C27.4°C27.2°C37.0%1010.0hPa0.0mm1.7km/hSSE3.2km/h0uvi
15.06.2019 19:4526.9°C27.1°C26.8°C38.5%1010.0hPa0.0mm2.5km/hSSE5.4km/h0uvi
15.06.2019 19:5026.6°C26.7°C26.6°C39.0%1010.6hPa0.0mm0.4km/hSSE2.5km/h0uvi
15.06.2019 19:5526.4°C26.5°C26.4°C39.0%1011.0hPa0.0mm0.1km/hSW1.4km/h0uvi
15.06.2019 20:0026.4°C26.4°C26.3°C39.3%1011.0hPa0.0mm0.0km/hSW1.4km/h0uvi
15.06.2019 20:0526.3°C26.3°C26.3°C40.8%1011.0hPa0.0mm2.2km/hSSW5.0km/h0uvi
15.06.2019 20:1026.1°C26.2°C26.0°C42.0%1011.0hPa0.0mm3.2km/hSSE4.7km/h0uvi
15.06.2019 20:1525.8°C25.9°C25.7°C42.2%1011.0hPa0.0mm2.9km/hSSE5.0km/h0uvi
15.06.2019 20:2025.5°C25.6°C25.4°C43.2%1011.0hPa0.0mm3.6km/hSSW5.8km/h0uvi
15.06.2019 20:2525.4°C25.4°C25.3°C44.0%1011.0hPa0.0mm1.9km/hSSW3.2km/h0uvi
15.06.2019 20:3025.2°C25.3°C25.2°C44.0%1011.0hPa0.0mm2.8km/hS4.0km/h0uvi
15.06.2019 20:3525.0°C25.1°C25.0°C44.7%1011.0hPa0.0mm3.6km/hSSE5.4km/h0uvi
15.06.2019 20:4024.8°C24.9°C24.8°C45.0%1011.0hPa0.0mm2.1km/hSSW5.4km/h0uvi
15.06.2019 20:4524.8°C24.8°C24.7°C44.5%1011.0hPa0.0mm1.5km/hSSW3.2km/h0uvi
15.06.2019 20:5024.7°C24.7°C24.6°C45.0%1011.0hPa0.0mm2.5km/hSSE5.0km/h0uvi
15.06.2019 20:5524.4°C24.5°C24.3°C45.3%1011.0hPa0.0mm2.3km/hSSE5.0km/h0uvi
15.06.2019 21:0024.2°C24.3°C24.2°C45.8%1011.0hPa0.0mm2.3km/hSSW4.3km/h0uvi
15.06.2019 21:0524.1°C24.2°C24.1°C46.0%1011.0hPa0.0mm1.8km/hSSW2.5km/h0uvi
15.06.2019 21:1024.1°C24.1°C24.0°C46.7%1011.0hPa0.0mm2.7km/hSSW5.0km/h0uvi
15.06.2019 21:1523.9°C23.9°C23.8°C47.0%1011.0hPa0.0mm3.6km/hSSE5.0km/h0uvi
15.06.2019 21:2023.7°C23.8°C23.6°C47.0%1011.0hPa0.0mm3.0km/hSSE5.8km/h0uvi
15.06.2019 21:2523.4°C23.5°C23.4°C47.8%1011.0hPa0.0mm2.5km/hSSW3.6km/h0uvi
15.06.2019 21:3023.4°C23.4°C23.3°C48.0%1011.0hPa0.0mm0.6km/hSSW1.8km/h0uvi
15.06.2019 21:3523.3°C23.3°C23.3°C48.0%1011.7hPa0.0mm0.3km/hSSW2.2km/h0uvi
15.06.2019 21:4023.3°C23.3°C23.3°C48.0%1012.0hPa0.0mm1.9km/hSSE4.0km/h0uvi
15.06.2019 21:4523.2°C23.2°C23.2°C48.0%1012.0hPa0.0mm1.7km/hSSE3.6km/h0uvi
15.06.2019 21:5023.1°C23.1°C23.1°C48.0%1012.0hPa0.0mm2.3km/hSSW5.4km/h0uvi
15.06.2019 21:5523.1°C23.1°C23.0°C48.0%1012.0hPa0.0mm0.2km/hNE0.0km/h0uvi
15.06.2019 22:0023.0°C23.0°C23.0°C49.2%1012.0hPa0.0mm0.3km/hSSW2.2km/h0uvi
15.06.2019 22:0522.9°C22.9°C22.9°C51.2%1012.0hPa0.0mm1.2km/hSSW4.3km/h0uvi
15.06.2019 22:1022.8°C22.8°C22.8°C51.2%1012.0hPa0.0mm1.8km/hSSW4.7km/h0uvi
15.06.2019 22:1522.8°C22.8°C22.7°C51.4%1012.0hPa0.0mm1.7km/hSSW4.0km/h0uvi
15.06.2019 22:2022.7°C22.7°C22.7°C51.0%1011.4hPa0.0mm0.9km/hWNW3.2km/h0uvi
15.06.2019 22:2522.6°C22.6°C22.6°C53.0%1011.0hPa0.0mm3.1km/hSSW5.8km/h0uvi
15.06.2019 22:3022.6°C22.6°C22.6°C53.0%1011.0hPa0.0mm3.1km/hSSW4.3km/h0uvi
15.06.2019 22:3522.6°C22.6°C22.5°C51.8%1011.6hPa0.0mm0.5km/hSSW4.3km/h0uvi
15.06.2019 22:4022.5°C22.5°C22.5°C51.2%1012.0hPa0.0mm2.0km/hSSW4.3km/h0uvi
15.06.2019 22:4522.5°C22.5°C22.5°C51.2%1012.0hPa0.0mm2.6km/hSSW4.7km/h0uvi
15.06.2019 22:5022.4°C22.4°C22.4°C51.5%1012.0hPa0.0mm0.8km/hWSW4.0km/h0uvi
15.06.2019 22:5522.3°C22.4°C22.3°C51.0%1012.0hPa0.0mm3.5km/hSSW6.8km/h0uvi
15.06.2019 23:0022.3°C22.3°C22.3°C50.0%1012.0hPa0.0mm5.5km/hSSW8.6km/h0uvi
15.06.2019 23:0522.3°C22.3°C22.3°C50.0%1012.0hPa0.0mm3.2km/hNW5.4km/h0uvi
15.06.2019 23:1022.2°C22.2°C22.2°C50.0%1012.0hPa0.0mm1.6km/hSSW6.1km/h0uvi
15.06.2019 23:1522.2°C22.2°C22.1°C50.0%1012.0hPa0.0mm4.0km/hSSE6.5km/h0uvi
15.06.2019 23:2022.0°C22.0°C21.9°C50.0%1012.0hPa0.0mm3.6km/hSSE6.8km/h0uvi
15.06.2019 23:2521.9°C21.9°C21.9°C50.0%1012.0hPa0.0mm3.8km/hSSE6.8km/h0uvi
15.06.2019 23:3021.8°C21.9°C21.8°C50.0%1012.0hPa0.0mm3.2km/hSSW6.5km/h0uvi
15.06.2019 23:3521.8°C21.8°C21.8°C50.0%1012.0hPa0.0mm3.3km/hSSE4.3km/h0uvi
15.06.2019 23:4021.7°C21.7°C21.7°C50.2%1012.0hPa0.0mm4.3km/hSSE6.5km/h0uvi
15.06.2019 23:4521.7°C21.7°C21.6°C51.0%1012.0hPa0.0mm5.0km/hSSW7.9km/h0uvi
15.06.2019 23:5021.6°C21.6°C21.6°C51.0%1012.0hPa0.0mm4.1km/hSSW6.5km/h0uvi
15.06.2019 23:5521.5°C21.6°C21.5°C51.6%1012.0hPa0.0mm2.9km/hSSW4.7km/h0uvi
16.06.2019 00:0021.4°C21.5°C21.3°C54.6%1012.0hPa0.0mm2.1km/hSSW3.6km/h0uvi
16.06.2019 00:0521.2°C21.2°C21.2°C56.0%1012.5hPa0.0mm1.7km/hSSW2.5km/h0uvi
16.06.2019 00:1021.1°C21.1°C21.0°C55.4%1013.0hPa0.0mm0.9km/hS2.2km/h0uvi
16.06.2019 00:1521.0°C21.0°C21.0°C54.0%1013.0hPa0.0mm2.0km/hSSW4.0km/h0uvi
16.06.2019 00:2021.0°C21.0°C20.9°C54.5%1012.4hPa0.0mm0.7km/hSSW3.6km/h0uvi
16.06.2019 00:2520.9°C20.9°C20.9°C54.4%1012.0hPa0.0mm0.1km/hWSW2.2km/h0uvi
16.06.2019 00:3020.8°C20.8°C20.8°C57.4%1012.0hPa0.0mm0.3km/hWSW1.8km/h0uvi
16.06.2019 00:3520.7°C20.7°C20.6°C58.4%1012.6hPa0.0mm0.6km/hWSW3.2km/h0uvi
16.06.2019 00:4020.5°C20.6°C20.4°C61.0%1013.0hPa0.0mm2.1km/hSSW4.0km/h0uvi
16.06.2019 00:4520.3°C20.4°C20.3°C60.4%1013.0hPa0.0mm0.6km/hW2.5km/h0uvi
16.06.2019 00:5020.2°C20.3°C20.2°C60.2%1013.0hPa0.0mm0.5km/hWSW2.2km/h0uvi
16.06.2019 00:5520.1°C20.1°C20.1°C61.8%1013.0hPa0.0mm0.5km/hWNW4.7km/h0uvi
16.06.2019 01:0019.9°C20.0°C19.9°C64.2%1013.0hPa0.0mm2.3km/hSSW3.6km/h0uvi
16.06.2019 01:0519.9°C19.9°C19.9°C66.0%1012.4hPa0.0mm3.5km/hSSW5.0km/h0uvi
16.06.2019 01:1019.9°C19.9°C19.9°C65.7%1012.0hPa0.0mm1.5km/hWNW4.7km/h0uvi
16.06.2019 01:1519.8°C19.9°C19.8°C64.0%1012.0hPa0.0mm0.3km/hSSW1.8km/h0uvi
16.06.2019 01:2019.8°C19.8°C19.8°C64.0%1012.6hPa0.0mm1.2km/hSSW2.2km/h0uvi
16.06.2019 01:2519.8°C19.8°C19.8°C63.5%1013.0hPa0.0mm0.8km/hSSW2.5km/h0uvi
16.06.2019 01:3019.8°C19.8°C19.7°C63.0%1013.0hPa0.0mm0.1km/hNE1.8km/h0uvi
16.06.2019 01:3519.7°C19.7°C19.7°C62.7%1013.0hPa0.0mm0.2km/hWNW0.0km/h0uvi
16.06.2019 01:4019.7°C19.7°C19.7°C62.2%1013.0hPa0.0mm0.5km/hWSW2.5km/h0uvi
16.06.2019 01:4519.6°C19.7°C19.6°C64.8%1013.0hPa0.0mm1.3km/hWSW4.0km/h0uvi
16.06.2019 01:5019.5°C19.5°C19.5°C64.0%1013.0hPa0.0mm0.0km/hWSW1.4km/h0uvi
16.06.2019 01:5519.4°C19.4°C19.4°C64.6%1013.0hPa0.0mm0.3km/hWSW2.2km/h0uvi
16.06.2019 02:0019.3°C19.3°C19.3°C67.0%1013.0hPa0.0mm1.3km/hSSW3.2km/h0uvi
16.06.2019 02:0519.2°C19.2°C19.2°C68.0%1013.0hPa0.0mm1.7km/hWSW2.5km/h0uvi
16.06.2019 02:1019.1°C19.2°C19.1°C67.0%1013.0hPa0.0mm0.0km/hWSW1.8km/h0uvi
16.06.2019 02:1519.1°C19.1°C19.1°C68.2%1013.0hPa0.0mm1.6km/hSSW4.3km/h0uvi
16.06.2019 02:2019.0°C19.1°C19.0°C68.8%1013.0hPa0.0mm1.1km/hWSW4.0km/h0uvi
16.06.2019 02:2518.9°C19.0°C18.9°C70.0%1013.0hPa0.0mm2.2km/hWSW3.2km/h0uvi
16.06.2019 02:3018.8°C18.9°C18.8°C70.8%1013.0hPa0.0mm1.7km/hSSW3.2km/h0uvi
16.06.2019 02:3518.7°C18.8°C18.7°C71.0%1013.0hPa0.0mm1.8km/hWSW3.2km/h0uvi
16.06.2019 02:4018.7°C18.7°C18.7°C72.0%1013.0hPa0.0mm1.8km/hSSW3.6km/h0uvi
16.06.2019 02:4518.6°C18.7°C18.6°C73.0%1013.0hPa0.0mm2.7km/hSSW4.0km/h0uvi
16.06.2019 02:5018.6°C18.6°C18.6°C73.0%1012.5hPa0.0mm2.7km/hSSW4.7km/h0uvi
16.06.2019 02:5518.6°C18.6°C18.6°C71.3%1012.0hPa0.0mm0.8km/hWNW2.5km/h0uvi
16.06.2019 03:0018.7°C18.7°C18.6°C71.0%1012.0hPa0.0mm0.8km/hNW2.2km/h0uvi
16.06.2019 03:0518.7°C18.8°C18.7°C71.2%1012.0hPa0.0mm1.0km/hSSW4.3km/h0uvi
16.06.2019 03:1018.7°C18.7°C18.7°C71.4%1012.0hPa0.0mm1.7km/hSSW2.2km/h0uvi
16.06.2019 03:1518.6°C18.6°C18.6°C71.0%1012.0hPa0.0mm0.1km/hSSW2.2km/h0uvi
16.06.2019 03:2018.6°C18.6°C18.6°C70.2%1012.0hPa0.0mm0.1km/hSSW2.2km/h0uvi
16.06.2019 03:2518.6°C18.6°C18.6°C70.2%1012.0hPa0.0mm0.7km/hSSW2.2km/h0uvi
16.06.2019 03:3018.6°C18.6°C18.6°C70.2%1012.0hPa0.0mm0.3km/hSSW1.8km/h0uvi
16.06.2019 03:3518.5°C18.5°C18.5°C70.2%1012.0hPa0.0mm0.4km/hWSW1.8km/h0uvi
16.06.2019 03:4018.5°C18.5°C18.4°C70.0%1012.0hPa0.0mm0.3km/hWSW1.8km/h0uvi
16.06.2019 03:4518.4°C18.4°C18.4°C71.0%1012.0hPa0.0mm0.5km/hWSW2.5km/h0uvi
16.06.2019 03:5018.4°C18.4°C18.3°C71.0%1012.0hPa0.0mm0.7km/hWNW2.5km/h0uvi
16.06.2019 03:5518.2°C18.2°C18.2°C71.0%1012.0hPa0.0mm0.8km/hWSW3.2km/h0uvi
16.06.2019 04:0018.0°C18.2°C17.9°C73.8%1012.0hPa0.0mm2.8km/hSSW4.7km/h0uvi
16.06.2019 04:0517.9°C17.9°C17.8°C74.2%1012.0hPa0.0mm1.9km/hWSW4.7km/h0uvi
16.06.2019 04:1017.8°C17.8°C17.7°C75.0%1012.0hPa0.0mm2.1km/hWSW4.0km/h0uvi
16.06.2019 04:1517.7°C17.7°C17.7°C75.0%1012.0hPa0.0mm0.1km/hWSW1.4km/h0uvi
16.06.2019 04:2017.7°C17.7°C17.7°C74.8%1012.5hPa0.0mm1.0km/hWSW4.0km/h0uvi
16.06.2019 04:2517.8°C17.8°C17.7°C75.2%1013.0hPa0.0mm2.2km/hSSW3.2km/h0uvi
16.06.2019 04:3017.8°C17.8°C17.8°C75.3%1013.0hPa0.0mm2.7km/hSSW5.4km/h0uvi
16.06.2019 04:3517.9°C17.9°C17.8°C75.0%1012.2hPa0.0mm0.0km/hWNW1.8km/h0uvi
16.06.2019 04:4017.9°C17.9°C17.9°C75.0%1012.0hPa0.0mm0.0km/hNW2.2km/h0uvi
16.06.2019 04:4517.9°C17.9°C17.9°C74.4%1012.0hPa0.0mm0.0km/hWNW1.8km/h0uvi
16.06.2019 04:5017.9°C17.9°C17.8°C74.0%1012.6hPa0.0mm0.3km/hNW2.5km/h0uvi
16.06.2019 04:5517.7°C17.8°C17.7°C74.0%1013.0hPa0.0mm0.3km/hWSW1.8km/h0uvi
16.06.2019 05:0017.7°C17.7°C17.6°C74.0%1013.0hPa0.0mm0.0km/hWSW1.8km/h
16.06.2019 05:0517.6°C17.6°C17.5°C74.4%1013.6hPa0.0mm0.0km/hWSW1.4km/h0uvi
16.06.2019 05:1017.5°C17.6°C17.5°C75.0%1014.0hPa0.0mm0.5km/hWSW2.2km/h0uvi
16.06.2019 05:1517.6°C17.6°C17.5°C76.5%1014.0hPa0.0mm2.2km/hSSW4.3km/h0uvi
16.06.2019 05:2017.6°C17.6°C17.6°C77.0%1013.4hPa0.0mm2.1km/hWSW4.3km/h0uvi
16.06.2019 05:2517.6°C17.6°C17.6°C76.5%1013.0hPa0.0mm1.6km/hSSW5.4km/h0uvi
16.06.2019 05:3017.7°C17.7°C17.6°C74.2%1013.0hPa0.0mm1.8km/hSSW4.3km/h0uvi
16.06.2019 05:3517.7°C17.7°C17.7°C74.0%1013.0hPa0.0mm0.0km/hWNW0.0km/h0uvi
16.06.2019 05:4017.7°C17.8°C17.7°C74.0%1013.0hPa0.0mm0.3km/hWSW3.2km/h0uvi
16.06.2019 05:4517.8°C17.8°C17.7°C75.0%1013.0hPa0.0mm1.8km/hSSW3.2km/h0uvi
16.06.2019 05:5017.6°C17.7°C17.6°C77.0%1013.0hPa0.0mm2.8km/hSSW4.3km/h0uvi
16.06.2019 05:5517.6°C17.6°C17.6°C78.0%1013.0hPa0.0mm1.4km/hWSW3.2km/h0uvi
16.06.2019 06:0017.6°C17.6°C17.6°C77.0%1013.0hPa0.0mm0.0km/hNW1.4km/h0uvi
16.06.2019 06:0517.6°C17.6°C17.6°C77.0%1013.0hPa0.0mm0.0km/hWNW1.8km/h0uvi
16.06.2019 06:1017.6°C17.6°C17.6°C76.5%1013.0hPa0.0mm1.5km/hSSW3.6km/h0uvi
16.06.2019 06:1517.6°C17.6°C17.6°C77.2%1013.0hPa0.0mm0.8km/hWSW3.2km/h0uvi
16.06.2019 06:2017.6°C17.6°C17.6°C78.0%1013.0hPa0.0mm0.0km/hWNW0.0km/h0uvi
16.06.2019 06:2517.6°C17.6°C17.6°C77.0%1013.0hPa0.0mm0.0km/hW1.8km/h0uvi
16.06.2019 06:3017.7°C17.7°C17.6°C77.6%1013.0hPa0.0mm0.8km/hWSW2.2km/h0uvi
16.06.2019 06:3517.7°C17.7°C17.7°C78.0%1013.0hPa0.0mm0.3km/hWSW4.7km/h0uvi
16.06.2019 06:4017.9°C17.9°C17.8°C79.0%1013.0hPa0.0mm1.6km/hWSW4.0km/h0uvi
16.06.2019 06:4517.9°C17.9°C17.9°C78.5%1013.0hPa0.0mm1.1km/hWSW3.2km/h0uvi
16.06.2019 06:5018.0°C18.0°C17.9°C78.0%1013.0hPa0.0mm0.8km/hWSW2.2km/h0uvi
16.06.2019 06:5518.1°C18.1°C18.0°C78.0%1013.0hPa0.0mm0.6km/hWNW2.2km/h0uvi
16.06.2019 07:0018.2°C18.2°C18.1°C78.0%1013.0hPa0.0mm1.2km/hNW2.5km/h0uvi
16.06.2019 07:0518.3°C18.3°C18.2°C78.0%1013.4hPa0.0mm2.0km/hNW2.5km/h0uvi
16.06.2019 07:1018.5°C18.5°C18.4°C78.0%1014.0hPa0.0mm0.5km/hNW2.2km/h0uvi
16.06.2019 07:1518.6°C18.7°C18.6°C77.2%1014.0hPa0.0mm1.3km/hWSW2.2km/h0uvi
16.06.2019 07:2018.7°C18.8°C18.7°C77.0%1014.0hPa0.0mm0.6km/hWSW4.0km/h0uvi
16.06.2019 07:2518.8°C18.9°C18.8°C77.0%1014.0hPa0.0mm0.5km/hWNW2.5km/h0uvi
16.06.2019 07:3019.0°C19.1°C18.9°C76.5%1014.0hPa0.0mm0.7km/hWNW2.2km/h0uvi
16.06.2019 07:3519.2°C19.3°C19.1°C75.5%1014.0hPa0.0mm1.3km/hWSW4.7km/h0uvi
16.06.2019 07:4019.4°C19.4°C19.3°C74.8%1014.0hPa0.0mm1.1km/hWSW4.7km/h0uvi
16.06.2019 07:4519.5°C19.6°C19.5°C74.0%1014.0hPa0.0mm0.4km/hWSW2.5km/h0uvi
16.06.2019 07:5019.8°C19.9°C19.7°C74.0%1014.0hPa0.0mm0.5km/h